Timeline UpdatesTrip UpdatesNews PostsPvt Posts♥♥Travel TipsAdmin PostsConv PostsFollowed PostsChat RequestsBlog PostsPNR Posts

Disclaimer
Search
 
 
Thu Oct 23, 2014 12:14:08 ISTHomeTrainsΣChainsAtlasPNRForumGalleryNewsFAQTripsMembersLoginFeedback
No Recent News for this Train
Other Trains in the News **new
Latest...
.
Fri Dec 13, 2013 (03:40PM)
⇐ Return Journey: Train# 12833

12834/Howrah - Ahmedabad SF Express

Time-Table HAS CHANGED.
Sep 03 2014 (10:29AM)
Change Departure Station:
Change Arrival Station:
Post a Train Travel TipPost a Train Travel Tip **new
Post a Comment/Question/Picture/VideoPost a Comment/Question/Picture/Video
Pantry/Catering
✓ Pantry Car Avbl
✓ Catering Avbl
RSA - Rake Sharing
Rake/Coach Composition
LOCO(SRC WAP 4E)-SLR-GEN-S1-S2-S3-S4-S5-S6-S7-S8-S9-S10-S11-S12-PC-S13-B1-B2-A1-A2-GEN-SLR
Loco
Loco: SRC WAP 4 ... Entry# 289462
News    PNR    Forum    Time-Table    Availability    Fare Chart    Map    Arr/Dep History    Trips    Gallery    ΣChains    X/O    Timeline    
Travel Time: 3h 48m    5 halts    Distance: 230 km    Avg Speed: 60 km/hr
Type: SuperFast
Zone: SER/South Eastern
Departs @ 09:12 (Avg 21m late)
Platform# 2
SMTWTFS
Surat/ST 
Arrives @ 13:00 (Avg 21m late)
Platform# 6
SMTWTFS
Ahmedabad Junction/ADI 

5 halts. 46 intermediate Stations between Surat and Ahmedabad Junction

Show ALL intermediate Stations  Show Old Time-Table

#TrkCodeStation NameX/OArrivesAvgDepartsAvgHaltPFDay#KmSpeedElevZoneAddress
1/==/HWHKolkata Howrah Junction (23)  -23:55+3221-1858.66510mERHowrah 711101, West Bengal
2/==/MCAMecheda (6)  00:50 00:49+900:52 00:50+172 1m--2-1800.43710mSERdist - purba Medinipur, West Bengal
3/==/PKUPanskura Junction (6)  01:13 01:10+801:15 01:13+92 3m--2-1788.0579mSERPanskura, West Bengal
4/==/KGPKharagpur Junction (10)  02:00+202:05+35m32-1743.67742mSERKharagpur, West Bengal
5/==/TATATatanagar Junction (5)XO  03:50+803:55+95m--2-1608.567164mSER91-657-2423026, Jharkhand
6/==/CKPChakradharpur (3)  04:50 04:51+1104:57 04:58+127m12-1546.279235mSERChakradharpur (West Singhbhum), Jharkhand
7/==/ROURourkela Junction (5)X  06:15+1706:30+1715m32-1445.264198mSERRourkela, Odisha
8/==/GPRaj Gangpur (3)  06:59 06:58+2007:00 06:59+211m12-1415.472237mSERRaj Ganpur, Odisha
9/==/BMBBamra (3)  07:29 07:28+2607:30 07:29+271m--2-1380.756259mSERBamra PH : 06642-229268, Odisha
10/==/JSGJharsuguda Junction (5)X  08:08+2008:10+222m--2-1344.288236mSERJharsuguda, Odisha
11/==/BRJNBrajrajnagar  08:18+3108:20+312m--2-1332.667212mSECRBrajrajnagar, Odisha
12/==/BPHBelpahar  08:28+3108:30+312m--2-1323.685 SECRBelpahar, Odisha
13/==/RIGRaigarh (3)X  09:06+3309:11+335m--2-1272.693220mSECRRaigarh, Chhattisgarh
14/==/KHSKharsiaX  09:33+4409:35+442m--2-1238.691 SECRNational Highway 200, Chhattisgarh
15/==/BUABaradwarX  09:55+5109:57+512m--2-1208.355 SECRJanjgir-Champa, Chhattisgarh
16/==/CPHChampa Junction (3)X  10:14+5110:19+495m32-1192.872264mSECRNational Highway 200 (07819-245767), Chhattisgarh
17/==/NIANailaX  10:28+5010:30+502m--2-1182.075273mSECRJanjgir, Chhattisgarh
18/==/AKTAkaltara (4)  10:42+5010:44+502m--2-1167.029284mSECRDist. Janjgir Champa, Chhattisgarh
19/==/BSPBilaspur Junction (8)X  11:40+2111:55+2715m22-1139.877271mSECRBilaspur, Chhattisgarh
20/==/BYTBhatapara (4)X  12:31+3012:33+302m22-1093.687270mSECRBanjari Road, Chhattisgarh
21/==/TLDTilda (3)X  12:51+2912:53+292m--2-1067.655 SECRBanjari Rd, Chhattisgarh
22/==/RRaipur Junction (6)X  13:35+2913:45+2910m52-1029.480297mSECRRaipur, Chhattisgarh
23/==/BPHBBhilai Power House (3)XO  14:06+214:08+22m12-1001.417312mSECRBhilai, Chhattisgarh
24/==/DURGDurg Junction (6)X  14:40+1714:45+195m42-992.487299mSECRPh: 91-788-2322059, Chhattisgarh
25/==/RJNRaj Nandgaon (3)  15:06+2915:08+292m--2-962.086313mSECRRajnandgaon, Chhattisgarh
26/==/DGGDongargarh (2)  15:30+3615:32+372m12-930.476 SECRDongargarh, Chhattisgarh
27/==/AGNAmgaon (2)X  16:12+4116:14+412m--2-880.047317mSECRGondia, Maharashtra
28/==/GGondia Junction (7)X  16:43+3116:48+315m22-857.292316mSECRGondia 441601, Maharashtra
29/==/TROTirora (3)  17:07+3717:09+372m--2-827.972282mSECRDist Gondia, Maharashtra
30/==/TMRTumsar Road (5)  17:26+3517:28+352m--2-807.572267mSECRDistt. Bhandara, Maharashtra
31/==/BRDBhandara Road (3)X  17:43+3517:45+352m22-789.693266mSECRState Highway 252 Bhandara District, Maharashtra
32/==/KPKamptee (3)X  18:16+3718:18+362m--2-741.620290mSECRKamptee, Maharashtra
33/==/NGPNagpur Junction (8)X  19:00+2319:10+2610m32-727.320314mCRNagpur 440001, Maharashtra
34/==/AJNIAjni (3)X  19:19+3119:20+321m32-724.371310mCRNagpur 440003, Maharashtra
35/==/WRWardha Junction (4)X  20:24+2820:27+283m22-648.481289mCRWardha 442001, Maharashtra
36/==/PLOPulgaon Junction (3)  20:49+3020:50+321m22-618.967273mCRPulgaon, Maharashtra
37/==/DMNDhamangaon (2)  21:08+3121:09+321m--2-598.967300mCRDhamangaon, Maharashtra
38/==/CNDChandur (2)X  21:24+3221:25+331m--2-582.238331mCRAmravati Distt, Maharashtra
39/==/BDBadnera Junction (4)X  22:10+2222:15+235m12-553.586335mCRBadnera (Amravati) 444701, Maharashtra
40/==/MZRMurtizapur (3)X  22:44+2922:45+311m--2-511.774303mCRMurtajapur, Maharashtra
41/==/AKAkola Junction (7)  23:15+3323:20+345m12-474.593284mCRAkola-444001, Maharashtra
42/==/SEGShegaon (2)  23:44+4223:45+441m22-437.368281mCRShegaon 444203, Maharashtra
43/==/JMJalamb Junction (3)  23:56+4323:58+442m12-424.967259mCRJalamb, Maharashtra
44/==/NNNandura (2)  00:09+4400:10+481m13-412.770267mCRNandura, Maharashtra
45/==/MKUMalkapur (2)  00:34+4500:35+471m23-384.850252mCRMalkapur, Maharashtra
46/==/BSLBhusaval Junction (8)XO  01:35+3501:45+3410m43-334.941208mCRBhusaval 425201, Maharashtra
47/==/JLJalgaon Junction (4)X  02:20+2502:25+265m23-310.851213mCRJalgaon 425001, Maharashtra
48%==/DXGDharangaon (2)  03:00+3603:01+371m13-281.151217mWRDharangaon, Maharashtra
49/==%ANAmalner (2)  03:30+3203:33+323m13-256.273188mWRAmalner, Maharashtra
50%==%SNKSindkheda (1)  04:07+4004:08+411m13-214.645178mWRState Highway 11, Maharashtra
51%=-/DDEDondaicha (2)X  04:34+3604:35+371m23-195.249163mWRDondaicha, Maharashtra
52/-=%NDBNandurbar (3)  05:17+3005:25+298m13-160.850203mWRNandurbar, Maharashtra
53/==/NWUNavapur (2)  06:35+2906:37+312m--3-102.955124mWRNavapur, Gujarat
54/==%VYAVyara (2)  07:23+3107:25+312m13-61.06090mWRVyara, Gujarat
55%==%MIDMadhi (1)  07:40+3307:42+332m13-46.05945mWRMadhi, Gujarat
56%==%BIYBardoli (2)X  07:57+3507:59+342m--3-31.23735mWRNear Bardoli Sugar Factory Bardoli, Gujarat
57/==%UDNUdhna Junction (3)XO  08:43+2408:45+242m13-4.01416mWRUdhna 394210, Gujarat
58/==/STSurat (4)»X  09:02+2109:12+2110m230.08119mWRSurat 395001, Gujarat
59/==/BHBharuch Junction (5)X  09:56+3709:58+372m3359.37419mWRBharuch, Gujarat
60/==/BRCVadodara Junction (7)X  10:55+4111:00+415m33129.87236mWRVadodara 390005, Gujarat
61/==/ANNDAnand Junction (6)  11:30+5611:32+572m23165.65344mWRAnand, Gujarat
62/==/NDNadiad Junction (4)X  11:53+4411:55+442m--3184.05837mWRNadiad, Gujarat
63/==/MANManinagar (2)X  12:39+3312:41+322m13226.41050mWRAhmadabad, Gujarat
64/==/ADIAhmedabad Junction (12)•  13:00+21-63229.6-51mWRAhmedabad, Gujarat
Scroll to Top
Scroll to Bottom